createdAt,value
2019-01-13T00:02:45.083Z,1.70
2019-01-13T00:07:49.633Z,2.33
2019-01-13T00:12:54.249Z,2.13
2019-01-13T00:17:58.776Z,2.30
2019-01-13T00:23:03.289Z,2.20
2019-01-13T00:28:07.913Z,1.80
2019-01-13T00:33:12.549Z,2.93
2019-01-13T00:38:17.119Z,2.27
2019-01-13T00:43:21.745Z,2.27
2019-01-13T00:48:26.431Z,2.63
2019-01-13T00:53:31.036Z,2.33
2019-01-13T00:58:35.558Z,2.40
2019-01-13T01:03:40.083Z,2.00
2019-01-13T01:08:44.693Z,2.30
2019-01-13T01:13:49.238Z,2.00
2019-01-13T01:18:53.856Z,2.40
2019-01-13T01:23:58.459Z,1.90
2019-01-13T01:29:03.044Z,1.87
2019-01-13T01:34:07.641Z,2.53
2019-01-13T01:39:12.204Z,1.60
2019-01-13T01:44:16.820Z,2.15
2019-01-13T01:49:21.428Z,2.07
2019-01-13T01:54:26.017Z,2.20
2019-01-13T01:59:30.632Z,2.07
2019-01-13T02:04:35.225Z,1.63
2019-01-13T02:09:39.828Z,1.90
2019-01-13T02:14:44.437Z,2.50
2019-01-13T02:19:48.982Z,1.60
2019-01-13T02:24:53.586Z,1.60
2019-01-13T02:29:58.224Z,1.60
2019-01-13T02:35:02.814Z,1.60
2019-01-13T02:40:08.623Z,1.47
2019-01-13T02:45:18.572Z,1.67
2019-01-13T02:50:23.179Z,1.87
2019-01-13T02:55:27.725Z,1.10
2019-01-13T03:00:32.217Z,1.60
2019-01-13T03:05:36.801Z,1.63
2019-01-13T03:10:41.389Z,1.63
2019-01-13T03:15:45.895Z,1.77
2019-01-13T03:20:50.904Z,1.63
2019-01-13T03:25:55.469Z,1.70
2019-01-13T03:31:11.477Z,1.23
2019-01-13T03:36:06.313Z,2.13
2019-01-13T03:41:10.835Z,1.60
2019-01-13T03:46:15.415Z,1.93
2019-01-13T03:51:19.951Z,1.77
2019-01-13T03:56:24.529Z,1.40
2019-01-13T04:01:29.098Z,2.00
2019-01-13T04:06:33.673Z,1.60
2019-01-13T04:11:38.266Z,2.05
2019-01-13T04:16:43.069Z,1.95
2019-01-13T04:21:47.683Z,1.40
2019-01-13T04:26:52.277Z,1.60
2019-01-13T04:31:56.914Z,1.90
2019-01-13T04:37:01.558Z,1.83
2019-01-13T04:42:06.201Z,2.07
2019-01-13T04:47:10.809Z,2.23
2019-01-13T04:52:15.409Z,2.37
2019-01-13T04:57:20.002Z,2.77
2019-01-13T05:02:24.599Z,2.93
2019-01-13T05:07:29.219Z,3.10
2019-01-13T05:12:33.806Z,3.83
2019-01-13T05:17:38.368Z,4.50
2019-01-13T05:22:43.047Z,4.37
2019-01-13T05:27:47.641Z,5.37
2019-01-13T05:32:52.266Z,6.07
2019-01-13T05:37:56.875Z,7.20
2019-01-13T05:43:01.439Z,6.93
2019-01-13T05:48:06.013Z,6.73
2019-01-13T05:53:10.685Z,6.83
2019-01-13T05:58:15.277Z,6.90
2019-01-13T06:03:19.891Z,7.77
2019-01-13T06:08:24.489Z,6.43
2019-01-13T06:13:29.090Z,6.77
2019-01-13T06:18:33.709Z,6.30
2019-01-13T06:23:38.299Z,5.90
2019-01-13T06:28:42.801Z,6.80
2019-01-13T06:33:47.339Z,5.60
2019-01-13T06:38:51.910Z,6.20
2019-01-13T06:43:56.484Z,6.40
2019-01-13T06:49:01.261Z,6.00
2019-01-13T06:54:06.006Z,6.03
2019-01-13T06:59:10.651Z,7.20
2019-01-13T07:04:15.225Z,6.83
2019-01-13T07:09:20.638Z,6.63
2019-01-13T07:14:25.219Z,7.37
2019-01-13T07:19:29.807Z,7.03
2019-01-13T07:24:34.386Z,7.00
2019-01-13T07:29:38.907Z,7.67
2019-01-13T07:34:43.503Z,6.87
2019-01-13T07:39:48.078Z,7.10
2019-01-13T07:44:52.658Z,7.30
2019-01-13T07:49:57.178Z,6.47
2019-01-13T07:55:01.794Z,7.43
2019-01-13T08:00:09.430Z,7.80
2019-01-13T08:05:13.998Z,7.93
2019-01-13T08:10:18.574Z,7.40
2019-01-13T08:15:23.150Z,9.33
2019-01-13T08:20:29.647Z,9.85
2019-01-13T08:25:34.268Z,8.20
2019-01-13T08:30:38.839Z,8.80
2019-01-13T08:35:43.435Z,8.17
2019-01-13T08:40:47.997Z,8.73
2019-01-13T08:45:52.569Z,8.17
2019-01-13T08:50:57.188Z,10.83
2019-01-13T08:56:01.817Z,8.30
2019-01-13T09:01:06.449Z,7.87
2019-01-13T09:06:11.084Z,7.70
2019-01-13T09:11:15.649Z,8.10
2019-01-13T09:16:20.179Z,8.30
2019-01-13T09:21:24.780Z,7.40
2019-01-13T09:26:29.399Z,7.60
2019-01-13T09:31:33.979Z,8.23
2019-01-13T09:36:38.551Z,7.97
2019-01-13T09:41:43.138Z,8.10
2019-01-13T09:46:47.723Z,7.97
2019-01-13T09:51:52.305Z,7.63
2019-01-13T09:56:56.962Z,7.27
2019-01-13T10:02:01.524Z,6.53
2019-01-13T10:07:06.114Z,7.17
2019-01-13T10:12:10.707Z,5.77
2019-01-13T10:17:15.340Z,5.47
2019-01-13T10:22:19.916Z,5.83
2019-01-13T10:27:24.589Z,5.17
2019-01-13T10:32:29.183Z,4.80
2019-01-13T10:37:33.774Z,5.13
2019-01-13T10:42:38.349Z,4.70
2019-01-13T10:47:42.951Z,4.00
2019-01-13T10:52:47.940Z,4.30
2019-01-13T10:57:52.684Z,3.47
2019-01-13T11:03:02.027Z,3.67
2019-01-13T11:08:11.060Z,4.10
2019-01-13T11:13:09.977Z,4.40
2019-01-13T11:18:14.618Z,4.13
2019-01-13T11:23:19.205Z,4.03
2019-01-13T11:28:23.827Z,4.27
2019-01-13T11:33:28.652Z,3.57
2019-01-13T11:38:33.325Z,3.00
2019-01-13T11:43:37.938Z,2.57
2019-01-13T11:48:42.648Z,3.67
2019-01-13T11:53:47.224Z,3.40
2019-01-13T11:58:51.903Z,2.73
2019-01-13T12:03:56.535Z,2.73
2019-01-13T12:09:01.401Z,3.87
2019-01-13T12:14:05.970Z,3.10
2019-01-13T12:19:10.580Z,3.03
2019-01-13T12:24:15.162Z,2.50
2019-01-13T12:29:19.701Z,2.90
2019-01-13T12:34:24.330Z,2.10
2019-01-13T12:39:28.913Z,2.30
2019-01-13T12:44:33.546Z,2.10
2019-01-13T12:49:38.206Z,2.17
2019-01-13T12:54:42.867Z,2.87
2019-01-13T12:59:47.470Z,2.33
2019-01-13T13:04:52.128Z,2.90
2019-01-13T13:09:56.756Z,1.80
2019-01-13T13:15:01.287Z,2.57
2019-01-13T13:20:07.013Z,2.37
2019-01-13T13:25:11.892Z,2.20
2019-01-13T13:30:19.200Z,2.10
2019-01-13T13:35:24.055Z,2.87
2019-01-13T13:40:28.764Z,2.80
2019-01-13T13:45:33.412Z,2.70
2019-01-13T13:50:38.028Z,2.33
2019-01-13T13:55:42.674Z,2.83
2019-01-13T14:00:47.228Z,2.60
2019-01-13T14:05:51.813Z,2.77
2019-01-13T14:10:56.412Z,2.53
2019-01-13T14:16:01.030Z,3.07
2019-01-13T14:21:05.709Z,2.93
2019-01-13T14:26:10.250Z,4.80
2019-01-13T14:31:15.124Z,3.00
2019-01-13T14:36:19.770Z,2.63
2019-01-13T14:41:24.410Z,3.57
2019-01-13T14:46:29.090Z,3.17
2019-01-13T14:51:33.696Z,2.87
2019-01-13T14:56:39.169Z,3.20
2019-01-13T15:01:43.862Z,2.53
2019-01-13T15:06:48.489Z,3.23
2019-01-13T15:11:53.061Z,3.37
2019-01-13T15:16:57.661Z,3.03
2019-01-13T15:22:02.236Z,2.90
2019-01-13T15:27:06.786Z,3.83
2019-01-13T15:32:11.333Z,4.47
2019-01-13T15:37:15.949Z,2.80
2019-01-13T15:42:20.567Z,3.37
2019-01-13T15:47:25.208Z,2.80
2019-01-13T15:52:29.804Z,3.00
2019-01-13T15:57:34.407Z,3.07
2019-01-13T16:02:39.041Z,3.23
2019-01-13T16:07:43.645Z,3.00
2019-01-13T16:12:48.398Z,4.03
2019-01-13T16:17:53.281Z,2.97
2019-01-13T16:22:57.805Z,2.80
2019-01-13T16:28:02.406Z,3.60
2019-01-13T16:33:06.991Z,3.13
2019-01-13T16:38:11.630Z,3.30
2019-01-13T16:43:16.272Z,3.03
2019-01-13T16:48:20.910Z,2.60
2019-01-13T16:53:25.595Z,3.10
2019-01-13T16:58:30.197Z,3.27
2019-01-13T17:03:34.827Z,3.13
2019-01-13T17:08:39.456Z,2.63
2019-01-13T17:13:45.542Z,3.17
2019-01-13T17:18:50.581Z,2.87
2019-01-13T17:23:55.489Z,2.63
2019-01-13T17:29:00.101Z,3.13
2019-01-13T17:34:04.700Z,3.47
2019-01-13T17:39:09.856Z,3.77
2019-01-13T17:44:15.493Z,2.57
2019-01-13T17:49:20.176Z,2.83
2019-01-13T17:54:24.921Z,2.77
2019-01-13T17:59:29.590Z,2.47
2019-01-13T18:04:34.542Z,2.63
2019-01-13T18:09:39.235Z,3.10
2019-01-13T18:14:44.256Z,3.40
2019-01-13T18:19:49.025Z,2.50
2019-01-13T18:24:54.074Z,2.90
2019-01-13T18:29:59.349Z,2.47
2019-01-13T18:35:04.641Z,2.73
2019-01-13T18:40:11.789Z,2.47
2019-01-13T18:45:16.911Z,2.53
2019-01-13T18:50:21.648Z,2.73
2019-01-13T18:55:26.237Z,3.17
2019-01-13T19:00:30.878Z,2.60
2019-01-13T19:05:35.641Z,2.87
2019-01-13T19:11:16.012Z,2.55
2019-01-13T19:16:20.942Z,1.73
2019-01-13T19:21:25.573Z,1.90
2019-01-13T19:26:30.134Z,1.87
2019-01-13T19:31:34.725Z,1.80
2019-01-13T19:36:39.332Z,2.50
2019-01-13T19:41:43.927Z,2.20
2019-01-13T19:46:48.541Z,1.80
2019-01-13T19:51:53.101Z,2.20
2019-01-13T19:56:57.651Z,1.65
2019-01-13T20:02:02.228Z,1.83
2019-01-13T20:07:07.122Z,2.40
2019-01-13T20:12:11.678Z,2.20
2019-01-13T20:17:16.267Z,1.87
2019-01-13T20:22:20.779Z,1.80
2019-01-13T20:27:25.471Z,2.00
2019-01-13T20:32:30.080Z,2.03
2019-01-13T20:37:34.683Z,2.33
2019-01-13T20:42:40.014Z,1.67
2019-01-13T20:47:44.761Z,2.55
2019-01-13T20:52:49.493Z,2.27
2019-01-13T20:57:54.214Z,2.60
2019-01-13T21:02:58.869Z,2.63
2019-01-13T21:08:03.517Z,2.50
2019-01-13T21:13:08.138Z,2.77
2019-01-13T21:18:12.721Z,2.70
2019-01-13T21:23:17.304Z,1.60
2019-01-13T21:28:21.905Z,2.10
2019-01-13T21:33:26.527Z,2.97
2019-01-13T21:38:31.190Z,2.90
2019-01-13T21:43:35.842Z,2.10
2019-01-13T21:48:40.497Z,2.10
2019-01-13T21:53:45.154Z,2.00
2019-01-13T21:58:49.758Z,2.53
2019-01-13T22:03:54.350Z,2.10
2019-01-13T22:08:59.049Z,2.17
2019-01-13T22:14:03.671Z,2.50
2019-01-13T22:19:08.275Z,2.50
2019-01-13T22:24:12.887Z,2.23
2019-01-13T22:29:17.563Z,2.63
2019-01-13T22:34:22.178Z,2.70
2019-01-13T22:39:26.948Z,2.77
2019-01-13T22:44:31.538Z,1.83
2019-01-13T22:49:36.126Z,2.20
2019-01-13T22:54:40.765Z,1.87
2019-01-13T22:59:45.406Z,3.43
2019-01-13T23:04:49.970Z,4.43
2019-01-13T23:09:54.614Z,2.80
2019-01-13T23:14:59.213Z,3.97
2019-01-13T23:20:03.988Z,2.60
2019-01-13T23:25:08.583Z,2.50
2019-01-13T23:30:13.266Z,2.87
2019-01-13T23:35:17.809Z,3.83
2019-01-13T23:40:22.422Z,2.40
2019-01-13T23:45:26.979Z,1.90
2019-01-13T23:50:31.610Z,2.80
2019-01-13T23:55:36.207Z,2.90
